^^
Datos históricos de la estación: Murcia-Puente Tocinos
Diario Informe para Abril 25, 2019 Unidades:  Inglés    Métrico   Ambas
Diario Semanal Mensual Anual Configurable
  Máximo: Mínimo: Media:
Temperatura: 75.2 °F 53.1 °F 63.5 °F
Punto de rocio: 55 °F 42.3 °F 50.4 °F
Humedad: 91% 33% 65%
Velocidad viento: 15.2mph 0mph 4.8mph
Racha viento: 26.5mph - -
Viento- - WSW
Presión: 30 in 29.8 in -
Precipitación: 0 in    
Historical Graphs
 
 
Tabla de datos para Abril 25, 2019
Hora Temperatura Punto de rocio Presión Viento Velocidad viento Racha viento Humedad Intensidad lluvia(por hora) Nubes
00:00 59.4 °F 51.1 °F 29.8 in ESE 5 mph 6 mph 74% 0 in CLR
00:05 59.4 °F 51.1 °F 29.8 in NW 4.3 mph 2.3 mph 74% 0 in CLR
00:10 59.4 °F 51.4 °F 29.8 in NW 2 mph 3.5 mph 75% 0 in CLR
00:15 59.2 °F 51.3 °F 29.8 in NW 2 mph 8.1 mph 75% 0 in CLR
00:20 59 °F 51.4 °F 29.8 in NNW 4.3 mph 5.8 mph 76% 0 in CLR
00:25 58.8 °F 51.6 °F 29.8 in NNW 4.3 mph 4.6 mph 77% 0 in CLR
00:30 58.8 °F 51.6 °F 29.8 in NNW 2.4 mph 2.3 mph 77% 0 in CLR
00:35 58.8 °F 51.6 °F 29.8 in NNW 2.4 mph 3.5 mph 77% 0 in CLR
00:40 58.6 °F 51.8 °F 29.8 in NE 2 mph 3.5 mph 78% 0 in CLR
00:45 58.6 °F 51.8 °F 29.8 in NE 2 mph 2.9 mph 78% 0 in CLR
00:50 58.5 °F 51.6 °F 29.8 in East 2 mph 6.9 mph 78% 0 in CLR
00:55 58.1 °F 51.6 °F 29.8 in SE 2 mph 4.6 mph 79% 0 in CLR
01:00 57.7 °F 51.6 °F 29.8 in ESE 3 mph 6 mph 80% 0 in CLR
01:05 57.4 °F 51.6 °F 29.8 in ESE 3.1 mph 5.8 mph 81% 0 in CLR
01:10 57 °F 51.3 °F 29.8 in NE 4 mph 2.4 mph 81% 0 in CLR
01:15 56.8 °F 51.4 °F 29.8 in ESE 4 mph 4.6 mph 82% 0 in CLR
01:20 56.8 °F 51.4 °F 29.8 in ESE 1.8 mph 2.3 mph 82% 0 in CLR
01:25 57 °F 51.6 °F 29.8 in ESE 1.8 mph   82% 0 in CLR
01:30 57 °F 51.6 °F 29.8 in Calm     82% 0 in CLR
01:35 57.4 °F 51.6 °F 29.8 in Calm   4.6 mph 81% 0 in CLR
01:40 57.4 °F 51.6 °F 29.8 in NNE 2 mph 3.5 mph 81% 0 in CLR
01:45 57 °F 51.3 °F 29.8 in NE 2 mph 5.2 mph 81% 0 in CLR
01:50 56.8 °F 51.4 °F 29.8 in NE 2.9 mph 2.3 mph 82% 0 in CLR
01:55 56.5 °F 51.1 °F 29.8 in North 2.9 mph 5.8 mph 82% 0 in CLR
02:00 56.1 °F 51.1 °F 29.8 in NNE 2 mph 6 mph 83% 0 in CLR
02:05 55.8 °F 51.1 °F 29.8 in NNW 2.9 mph 3.6 mph 84% 0 in CLR
02:10 55.8 °F 51.3 °F 29.8 in NNW 2.9 mph 2.3 mph 85% 0 in CLR
02:15 55.6 °F 51.1 °F 29.8 in NNW 2.9 mph 2.3 mph 85% 0 in CLR
02:20 55.6 °F 51.4 °F 29.8 in NNW 1.4 mph   86% 0 in CLR
02:25 55.6 °F 51.4 °F 29.8 in NNW 1.4 mph 2 mph 86% 0 in CLR
02:30 55.6 °F 51.4 °F 29.8 in Calm   3 mph 86% 0 in CLR
02:35 55.8 °F 51.6 °F 29.8 in Calm   4.6 mph 86% 0 in CLR
02:40 55.8 °F 51.6 °F 29.8 in West 1.8 mph 4.6 mph 86% 0 in CLR
02:45 55.8 °F 51.6 °F 29.8 in West 1.8 mph   86% 0 in CLR
02:50 55.8 °F 51.6 °F 29.8 in West 1.4 mph 1.4 mph 86% 0 in CLR
02:55 55.9 °F 51.8 °F 29.8 in ESE 1.4 mph 4.6 mph 86% 0 in CLR
03:00 56.1 °F 51.6 °F 29.8 in SE 2 mph 7 mph 85% 0 in CLR
03:05 55.9 °F 51.4 °F 29.8 in East 2.4 mph 4.6 mph 85% 0 in CLR
03:10 55.8 °F 51.6 °F 29.8 in East 3.1 mph 5.2 mph 86% 0 in CLR
03:15 55.6 °F 51.4 °F 29.8 in East 3.1 mph 4.6 mph 86% 0 in CLR
03:20 55.6 °F 51.4 °F 29.8 in East 2.9 mph   86% 0 in CLR
03:25 55.6 °F 51.4 °F 29.8 in East 2 mph 2 mph 86% 0 in CLR
03:30 55.6 °F 51.4 °F 29.8 in Calm   3.6 mph 86% 0 in CLR
03:35 55.4 °F 51.3 °F 29.8 in Calm   2.3 mph 86% 0 in CLR
03:40 55.2 °F 51.1 °F 29.8 in North 2 mph 5 mph 86% 0 in CLR
03:45 55 °F 50.9 °F 29.8 in NNE 1.8 mph 4.6 mph 86% 0 in CLR
03:50 54.9 °F 51.1 °F 29.8 in NW 3.1 mph 4.6 mph 87% 0 in CLR
03:55 54.7 °F 50.9 °F 29.8 in NNW 3 mph 7 mph 87% 0 in CLR
04:00 54.5 °F 51.1 °F 29.8 in NW 3 mph 6 mph 88% 0 in CLR
04:05 54.5 °F 51.1 °F 29.8 in NW 3 mph 5 mph 88% 0 in CLR
04:10 54.7 °F 51.4 °F 29.8 in West 3.1 mph 2.3 mph 89% 0 in CLR
04:15 54.7 °F 51.4 °F 29.8 in West 3.1 mph   89% 0 in CLR
04:19 54.7 °F 51.3 °F 29.8 in Calm   1.2 mph 88% 0 in CLR
04:25 54.9 °F 51.4 °F 29.8 in Calm   4.6 mph 88% 0 in CLR
04:30 54.7 °F 51.3 °F 29.8 in SE 2.9 mph 4.6 mph 88% 0 in CLR
04:34 54.5 °F 51.1 °F 29.8 in SSE 2.9 mph 4.3 mph 88% 0 in CLR
04:39 54.3 °F 50.7 °F 29.8 in South 3.1 mph 4.6 mph 88% 0 in CLR
04:45 54.3 °F 51.1 °F 29.8 in South 3.1 mph   89% 0 in CLR
04:49 54.3 °F 51.1 °F 29.8 in Calm   3.1 mph 89% 0 in CLR
04:55 54.7 °F 51.4 °F 29.8 in Calm   3.5 mph 89% 0 in CLR
04:59 54.7 °F 51.3 °F 29.8 in Calm   4.6 mph 88% 0 in CLR
05:05 54.7 °F 51.3 °F 29.8 in SSW 2.9 mph   88% 0 in CLR
05:10 54.9 °F 51.4 °F 29.8 in SSW 1.8 mph   88% 0 in CLR
05:15 54.9 °F 51.4 °F 29.8 in NW 1.8 mph 1.4 mph 88% 0 in CLR
05:20 54.5 °F 51.1 °F 29.8 in NW 1.8 mph 5.9 mph 88% 0 in CLR
05:25 54.1 °F 50.7 °F 29.8 in NNW 1.8 mph 5.8 mph 88% 0 in CLR
05:30 54.1 °F 51.1 °F 29.8 in NNW 3.6 mph 2.3 mph 89% 0 in CLR
05:35 54.1 °F 51.1 °F 29.8 in NNW 3.6 mph   89% 0 in CLR
05:40 54.1 °F 51.1 °F 29.8 in Calm     89% 0 in CLR
05:45 54.1 °F 51.3 °F 29.8 in Calm   3.5 mph 90% 0 in CLR
05:50 54.3 °F 51.1 °F 29.8 in ESE 1.8 mph 6.9 mph 89% 0 in CLR
05:55 54 °F 50.7 °F 29.8 in ESE 1.8 mph 4.6 mph 89% 0 in CLR
06:00 54 °F 50.7 °F 29.8 in East 3 mph 3 mph 89% 0 in CLR
06:05 54 °F 50.7 °F 29.8 in NE 3.1 mph   89% 0 in CLR
06:10 53.8 °F 50.9 °F 29.8 in ENE 1.4 mph   90% 0 in CLR
06:15 54 °F 51.1 °F 29.8 in North 1.4 mph 3.5 mph 90% 0 in CLR
06:20 54 °F 51.1 °F 29.8 in NW 1.4 mph 4.6 mph 90% 0 in CLR
06:25 54 °F 51.1 °F 29.8 in WNW 1.4 mph 2.3 mph 90% 0 in CLR
06:30 54 °F 50.7 °F 29.8 in NE 1.8 mph 4.6 mph 89% 0 in CLR
06:35 53.8 °F 50.5 °F 29.8 in NNE 1.8 mph 3.5 mph 89% 0 in CLR
06:40 53.4 °F 50.4 °F 29.8 in NNW 1.8 mph 4 mph 89% 0 in CLR
06:45 53.4 °F 50.5 °F 29.8 in NNE 1.8 mph 2.3 mph 90% 0 in CLR
06:50 53.2 °F 50.4 °F 29.8 in NNE 2 mph 4.6 mph 90% 0 in CLR
06:55 53.2 °F 50.4 °F 29.8 in NW 2 mph 5.8 mph 90% 0 in CLR
07:00 53.1 °F 50.2 °F 29.8 in NNW 2 mph 6 mph 90% 0 in CLR
07:05 53.1 °F 50.5 °F 29.8 in WNW 2.9 mph   91% 0 in CLR
07:10 53.1 °F 50.5 °F 29.8 in West 2 mph 4.6 mph 91% 0 in CLR
07:15 53.1 °F 50.5 °F 29.8 in South 2 mph 4.6 mph 91% 0 in CLR
07:20 53.2 °F 50.7 °F 29.8 in South 2.4 mph 2.4 mph 91% 0 in CLR
07:25 53.4 °F 50.5 °F 29.8 in West 2.4 mph 4.6 mph 90% 0 in CLR
07:30 53.6 °F 50.7 °F 29.8 in West 2.4 mph 2.3 mph 90% 0 in CLR
07:35 53.6 °F 50.4 °F 29.8 in East 2.4 mph 3.5 mph 89% 0 in CLR
07:40 53.4 °F 50.5 °F 29.8 in East 2 mph   90% 0 in CLR
07:45 53.4 °F 50.5 °F 29.8 in NW 2 mph 3.5 mph 90% 0 in CLR
07:50 53.2 °F 50.2 °F 29.8 in NNW 1.8 mph 3.5 mph 89% 0 in CLR
07:55 53.2 °F 50.4 °F 29.8 in East 1.8 mph 4.6 mph 90% 0 in CLR
08:00 53.4 °F 50.9 °F 29.8 in ENE 2 mph 5 mph 91% 0 in CLR
08:05 53.6 °F 51.1 °F 29.8 in East 2.4 mph 2.3 mph 91% 0 in CLR
08:10 53.8 °F 50.9 °F 29.8 in NW 1.8 mph 2.4 mph 90% 0 in CLR
08:15 54.1 °F 51.6 °F 29.8 in NW 1.8 mph 1.2 mph 91% 0 in CLR
08:20 54.5 °F 51.6 °F 29.8 in Calm     90% 0 in CLR
08:25 55 °F 52 °F 29.8 in Calm     89% 0 in CLR
08:30 55.4 °F 52 °F 29.8 in Calm     88% 0 in CLR
08:35 55.9 °F 52.2 °F 29.8 in Calm     87% 0 in CLR
08:40 56.3 °F 51.8 °F 29.8 in Calm   4.6 mph 85% 0 in CLR
08:45 56.5 °F 52 °F 29.8 in Calm     85% 0 in CLR
08:50 56.5 °F 52 °F 29.8 in NNW 1.8 mph 3.5 mph 85% 0 in CLR
08:55 56.7 °F 52 °F 29.8 in West 1.8 mph 4.6 mph 84% 0 in CLR
09:00 56.7 °F 52 °F 29.8 in WNW 2 mph 5 mph 84% 0 in CLR
09:05 57 °F 52 °F 29.8 in West 2.9 mph 3.5 mph 83% 0 in CLR
09:10 57.4 °F 52.3 °F 29.8 in West 2.4 mph 3.6 mph 83% 0 in CLR
09:15 57.7 °F 52.9 °F 29.8 in NE 2.4 mph 2.3 mph 84% 0 in CLR
09:20 58.3 °F 53.1 °F 29.8 in NNE 2 mph 3.5 mph 83% 0 in CLR
09:25 58.6 °F 53.2 °F 29.8 in North 2 mph 4.6 mph 82% 0 in CLR
09:30 58.8 °F 53.2 °F 29.8 in North 1.8 mph   82% 0 in CLR
09:35 59.4 °F 53.2 °F 29.8 in NNW 1.8 mph 3.5 mph 80% 0 in CLR
09:40 59.7 °F 53.2 °F 29.8 in NNW 1.4 mph   79% 0 in CLR
09:45 60.1 °F 52.5 °F 29.8 in NNW 1.4 mph   76% 0 in CLR
09:50 60.3 °F 52 °F 29.8 in Calm     74% 0 in CLR
09:55 60.6 °F 51.4 °F 29.8 in Calm     72% 0 in CLR
10:00 61.2 °F 51.6 °F 29.8 in NE 1 mph 3 mph 71% 0 in CLR
10:05 61.5 °F 51.3 °F 29.8 in NE 1.4 mph 4.6 mph 69% 0 in CLR
10:10 61.9 °F 52 °F 29.8 in ENE 1.4 mph 4.6 mph 70% 0 in CLR
10:15 62.2 °F 52.3 °F 29.8 in NNE 1.4 mph 4.6 mph 70% 0 in CLR
10:20 62.2 °F 52.3 °F 29.8 in NE 3.1 mph 4.6 mph 70% 0 in CLR
10:25 62.4 °F 52.5 °F 29.8 in NNW 3.1 mph 2.9 mph 70% 0 in CLR
10:30 62.6 °F 52 °F 29.8 in NW 2 mph 4.7 mph 68% 0 in CLR
10:35 62.8 °F 52.2 °F 29.8 in North 2 mph 4.6 mph 68% 0 in CLR
10:40 63 °F 52.2 °F 29.8 in West 2.9 mph 4.6 mph 68% 0 in CLR
10:45 63.1 °F 52.3 °F 29.8 in NW 2.9 mph 4 mph 68% 0 in CLR
10:50 63.3 °F 52.2 °F 29.8 in NNW 2.4 mph 2.3 mph 67% 0 in CLR
10:55 63.9 °F 52.7 °F 29.8 in West 2.4 mph 2.3 mph 67% 0 in CLR
11:00 64 °F 52.5 °F 29.8 in West 1 mph 5 mph 66% 0 in CLR
11:05 64.4 °F 52.3 °F 29.8 in West 1.4 mph 3.5 mph 65% 0 in CLR
11:10 64.8 °F 52.7 °F 29.8 in West 2 mph 4.6 mph 65% 0 in CLR
11:15 65.1 °F 53.1 °F 29.8 in West 2 mph   65% 0 in CLR
11:20 65.8 °F 53.2 °F 29.8 in ENE 1.8 mph 2.3 mph 64% 0 in CLR
11:25 66.4 °F 53.4 °F 29.8 in SW 1.8 mph 4.7 mph 63% 0 in CLR
11:30 66.7 °F 53.2 °F 29.8 in SSE 2 mph 10.4 mph 62% 0 in CLR
11:35 67.3 °F 53.4 °F 29.8 in SSE 2 mph 11.5 mph 61% 0 in CLR
11:40 67.5 °F 53.1 °F 29.8 in South 5.9 mph 9.2 mph 60% 0 in CLR
11:45 67.6 °F 53.2 °F 29.8 in South 5.9 mph 4.6 mph 60% 0 in CLR
11:50 68 °F 53.1 °F 29.8 in South 4.7 mph 4.6 mph 59% 0 in CLR
11:55 68.4 °F 53.4 °F 29.8 in SSE 4.7 mph 2.3 mph 59% 0 in CLR
12:00 68.7 °F 53.4 °F 29.8 in South 2 mph 5 mph 58% 0 in CLR
12:05 68.7 °F 53.8 °F 29.8 in North 2 mph 8.1 mph 59% 0 in CLR
12:10 68.7 °F 54.3 °F 29.8 in NW 3.6 mph 5.2 mph 60% 0 in CLR
12:15 68.7 °F 53.2 °F 29.8 in West 3.6 mph 5.8 mph 58% 0 in CLR
12:20 68.7 °F 52.9 °F 29.8 in WSW 3.6 mph 3.5 mph 57% 0 in CLR
12:25 69.1 °F 52.7 °F 29.8 in WNW 3.6 mph 4.6 mph 56% 0 in CLR
12:30 69.3 °F 52.3 °F 29.8 in West 2.4 mph 3.6 mph 55% 0 in CLR
12:35 69.6 °F 51.6 °F 29.8 in West 2.4 mph 6.9 mph 53% 0 in CLR
12:40 69.8 °F 52 °F 29.8 in WNW 3.6 mph 6.9 mph 53% 0 in CLR
12:45 70 °F 52.2 °F 29.8 in West 3.6 mph 8.1 mph 53% 0 in CLR
12:50 70.3 °F 52 °F 29.8 in WNW 2.9 mph 2.4 mph 52% 0 in CLR
12:55 70.5 °F 52 °F 29.8 in SW 2.9 mph 3.5 mph 52% 0 in CLR
13:00 70.9 °F 52 °F 29.8 in WSW 2 mph 5 mph 51% 0 in CLR
13:05 71.4 °F 52.3 °F 29.8 in NE 1.8 mph 4.6 mph 51% 0 in CLR
13:10 72 °F 52.3 °F 29.8 in SSW 2 mph 4.6 mph 50% 0 in CLR
13:15 72.1 °F 52.5 °F 29.8 in South 2 mph 4.6 mph 50% 0 in CLR
13:20 72.1 °F 53.1 °F 29.8 in South 3.1 mph 12.7 mph 51% 0 in CLR
13:25 71.6 °F 53.1 °F 29.8 in South 3.1 mph 5.8 mph 52% 0 in CLR
13:30 71.8 °F 53.8 °F 29.8 in SW 5.4 mph 2.4 mph 53% 0 in CLR
13:35 72 °F 54 °F 29.8 in NE 5.4 mph 2.3 mph 53% 0 in CLR
13:40 72.1 °F 54.1 °F 29.8 in South 2 mph 4.6 mph 53% 0 in CLR
13:45 72.5 °F 54 °F 29.8 in SW 2 mph 11.5 mph 52% 0 in CLR
13:50 72.3 °F 53.8 °F 29.8 in WSW 4.7 mph 12.7 mph 52% 0 in CLR
13:55 72.1 °F 54.1 °F 29.8 in SW 4.7 mph 11.5 mph 53% 0 in CLR
14:00 72.1 °F 54 °F 29.8 in SW 8 mph 14 mph 53% 0 in CLR
14:05 72.1 °F 54.7 °F 29.8 in WSW 7.6 mph 9.2 mph 54% 0 in CLR
14:10 72.3 °F 54.7 °F 29.8 in West 6.9 mph 16.1 mph 54% 0 in CLR
14:15 71.8 °F 54.7 °F 29.8 in West 6.9 mph 16.1 mph 55% 0 in CLR
14:20 71.6 °F 55 °F 29.8 in NW 8.5 mph 9.2 mph 56% 0 in CLR
14:25 71.4 °F 52.9 °F 29.8 in WNW 8.5 mph 16.1 mph 52% 0 in CLR
14:30 71.1 °F 53.6 °F 29.8 in WNW 9.7 mph 18.4 mph 54% 0 in CLR
14:35 70 °F 54 °F 29.9 in NW 9.7 mph 19.6 mph 57% 0 in CLR
14:40 69.3 °F 53.8 °F 29.9 in NW 13.5 mph 18.4 mph 58% 0 in CLR
14:45 68.9 °F 54 °F 29.9 in NW 13.5 mph 18.4 mph 59% 0 in CLR
14:50 69.1 °F 54.7 °F 29.9 in WNW 11.8 mph 16.1 mph 60% 0 in CLR
14:55 68.7 °F 54.3 °F 29.9 in NW 11.8 mph 13.8 mph 60% 0 in CLR
15:00 68.5 °F 54.1 °F 29.9 in WNW 12 mph 17 mph 60% 0 in CLR
15:05 68.5 °F 53.6 °F 29.9 in NW 11.4 mph 17.3 mph 59% 0 in CLR
15:10 68.5 °F 53.6 °F 29.9 in WNW 10 mph 11.5 mph 59% 0 in CLR
15:15 68.5 °F 53.6 °F 29.9 in NW 10 mph 11.5 mph 59% 0 in CLR
15:20 68.7 °F 53.8 °F 29.9 in NNW 8.5 mph 9.2 mph 59% 0 in CLR
15:25 68.7 °F 53.2 °F 29.9 in WNW 8.5 mph 11.5 mph 58% 0 in CLR
15:30 69.3 °F 52.9 °F 29.9 in West 6.9 mph 13.8 mph 56% 0 in CLR
15:35 69.8 °F 53.4 °F 29.9 in WNW 6.9 mph 11.5 mph 56% 0 in CLR
15:40 70.2 °F 52.7 °F 29.9 in NNW 7.4 mph 12.3 mph 54% 0 in CLR
15:45 70.5 °F 52.5 °F 29.9 in WNW 7.4 mph 12.7 mph 53% 0 in CLR
15:50 70.7 °F 52.7 °F 29.9 in NNW 7.4 mph 10 mph 53% 0 in CLR
15:55 70.9 °F 51.8 °F 29.9 in NW 7.4 mph 9.2 mph 51% 0 in CLR
16:00 71.1 °F 52 °F 29.9 in NW 5 mph 8 mph 51% 0 in CLR
16:05 71.4 °F 52.3 °F 29.9 in SE 5.2 mph 4.6 mph 51% 0 in CLR
16:10 71.6 °F 52.5 °F 29.9 in NW 4 mph 11.5 mph 51% 0 in CLR
16:15 71.4 °F 51.8 °F 29.9 in WNW 4 mph 12.5 mph 50% 0 in CLR
16:20 71.2 °F 51.6 °F 29.9 in WNW 7.6 mph 11.5 mph 50% 0 in CLR
16:25 71.2 °F 51.6 °F 29.9 in West 7.6 mph 12.7 mph 50% 0 in CLR
16:30 71.4 °F 52.3 °F 29.9 in West 8.1 mph 10.4 mph 51% 0 in CLR
16:35 71.6 °F 52 °F 29.9 in WNW 8.1 mph 4.6 mph 50% 0 in CLR
16:40 72 °F 52.3 °F 29.9 in NW 3.6 mph 5.8 mph 50% 0 in CLR
16:45 72.1 °F 52 °F 29.9 in West 3.6 mph 6.9 mph 49% 0 in CLR
16:50 72.1 °F 52 °F 29.8 in WSW 4.7 mph 6.9 mph 49% 0 in CLR
16:55 72.5 °F 52.2 °F 29.8 in West 4.7 mph 5.8 mph 49% 0 in CLR
17:00 72.5 °F 52.2 °F 29.8 in West 5 mph 8 mph 49% 0 in CLR
17:05 73 °F 52.2 °F 29.8 in WSW 4.3 mph 9.2 mph 48% 0 in CLR
17:10 73.6 °F 52.2 °F 29.8 in South 5.4 mph 5.8 mph 47% 0 in CLR
17:15 73.8 °F 52.3 °F 29.8 in West 5.4 mph 8.1 mph 47% 0 in CLR
17:20 73.8 °F 51.6 °F 29.8 in NW 4.3 mph 4.6 mph 46% 0 in CLR
17:25 73.9 °F 51.8 °F 29.8 in South 4.3 mph 8.1 mph 46% 0 in CLR
17:30 73.9 °F 52.3 °F 29.8 in ESE 4 mph 5.8 mph 47% 0 in CLR
17:35 74.3 °F 52.2 °F 29.8 in SW 4 mph 8.1 mph 46% 0 in CLR
17:40 74.1 °F 52 °F 29.8 in SSE 4.7 mph 8.1 mph 46% 0 in CLR
17:45 74.1 °F 52 °F 29.8 in WSW 4.7 mph 4.6 mph 46% 0 in CLR
17:50 74.5 °F 51.1 °F 29.8 in West 4.7 mph 9.2 mph 44% 0 in CLR
17:55 74.5 °F 51.1 °F 29.8 in West 4.7 mph 4.6 mph 44% 0 in CLR
18:00 74.7 °F 51.3 °F 29.8 in West 5 mph 7 mph 44% 0 in CLR
18:05 74.5 °F 51.1 °F 29.9 in North 4 mph 4.6 mph 44% 0 in CLR
18:10 74.5 °F 50.5 °F 29.9 in NNE 3.6 mph 6.9 mph 43% 0 in CLR
18:15 74.5 °F 50.5 °F 29.9 in WNW 3.6 mph 6.2 mph 43% 0 in CLR
18:20 74.7 °F 50.7 °F 29.9 in NW 4 mph 4.6 mph 43% 0 in CLR
18:25 74.7 °F 50 °F 29.9 in SSE 4 mph 6.9 mph 42% 0 in CLR
18:30 74.5 °F 49.3 °F 29.9 in West 3.6 mph 15 mph 41% 0 in CLR
18:35 74.5 °F 47.1 °F 29.9 in SW 3.6 mph 13.8 mph 38% 0 in CLR
18:40 74.8 °F 46 °F 29.9 in SW 8.5 mph 18.4 mph 36% 0 in CLR
18:45 75 °F 45.5 °F 29.9 in West 8.5 mph 15 mph 35% 0 in CLR
18:50 75.2 °F 44.1 °F 29.9 in SW 10.2 mph 13.8 mph 33% 0 in CLR
18:55 75.2 °F 44.1 °F 29.9 in WSW 10.2 mph 17.3 mph 33% 0 in CLR
19:00 75 °F 44.1 °F 29.9 in SW 10 mph 17 mph 33% 0 in CLR
19:05 75 °F 44.8 °F 29.9 in NNW 10.2 mph 9.7 mph 34% 0 in CLR
19:10 75 °F 44.8 °F 29.9 in SW 7.4 mph 10.4 mph 34% 0 in CLR
19:15 74.8 °F 44.6 °F 29.9 in West 7.4 mph 13.8 mph 34% 0 in CLR
19:20 74.5 °F 45 °F 29.9 in WNW 8.5 mph 20.7 mph 35% 0 in CLR
19:25 73.9 °F 45.3 °F 29.9 in WNW 8.5 mph 10.4 mph 36% 0 in CLR
19:30 73.8 °F 45.1 °F 29.9 in West 9.2 mph 8.1 mph 36% 0 in CLR
19:35 73.6 °F 45.7 °F 29.9 in West 9.2 mph 8.1 mph 37% 0 in CLR
19:40 73.6 °F 45 °F 29.9 in West 4.7 mph 10.4 mph 36% 0 in CLR
19:45 73.8 °F 45.9 °F 29.9 in SW 4.7 mph 5.8 mph 37% 0 in CLR
19:50 74.3 °F 45.7 °F 29.9 in SW 5.2 mph 8.1 mph 36% 0 in CLR
19:55 74.7 °F 45.1 °F 29.9 in West 5.2 mph 12.7 mph 35% 0 in CLR
20:00 74.5 °F 44.2 °F 29.9 in WSW 7 mph 16 mph 34% 0 in CLR
20:05 74.1 °F 43.9 °F 29.9 in NW 7.4 mph 13.5 mph 34% 0 in CLR
20:10 73.8 °F 43 °F 29.9 in West 8.5 mph 20.7 mph 33% 0 in CLR
20:15 73.2 °F 42.4 °F 29.9 in West 8.5 mph 17.3 mph 33% 0 in CLR
20:20 73 °F 42.3 °F 29.9 in West 11.8 mph 17.3 mph 33% 0 in CLR
20:25 73 °F 42.3 °F 29.9 in NW 11.8 mph 11.5 mph 33% 0 in CLR
20:30 72.7 °F 42.6 °F 29.9 in North 9.2 mph 15 mph 34% 0 in CLR
20:35 71.1 °F 44.2 °F 29.9 in West 9.2 mph 13.8 mph 38% 0 in CLR
20:40 68.7 °F 44.8 °F 29.9 in WNW 10.7 mph 26.5 mph 42% 0 in CLR
20:45 67.5 °F 44.8 °F 29.9 in NW 10.7 mph 12.7 mph 44% 0 in CLR
20:50 66.9 °F 45 °F 29.9 in NW 13 mph 16.3 mph 45% 0 in CLR
20:55 66.7 °F 44.8 °F 29.9 in WNW 13 mph 15 mph 45% 0 in CLR
21:00 66.7 °F 44.8 °F 29.9 in WNW 12 mph 17 mph 45% 0 in CLR
21:05 66.6 °F 44.4 °F 29.9 in WNW 11.4 mph 16.1 mph 45% 0 in CLR
21:10 66.4 °F 45 °F 29.9 in NW 10.7 mph 17.3 mph 46% 0 in CLR
21:15 66 °F 45.1 °F 29.9 in WNW 10.7 mph 13.8 mph 47% 0 in CLR
21:20 65.8 °F 45 °F 29.9 in NW 9.2 mph 15 mph 47% 0 in CLR
21:25 65.7 °F 45 °F 29.9 in WNW 9.2 mph 11.5 mph 47% 0 in CLR
21:30 65.5 °F 45.3 °F 29.9 in WNW 9.2 mph 11.8 mph 48% 0 in CLR
21:35 65.5 °F 45.3 °F 29.9 in West 9.2 mph 10.2 mph 48% 0 in CLR
21:40 65.5 °F 45.3 °F 29.9 in WNW 8.1 mph 12.7 mph 48% 0 in CLR
21:45 65.3 °F 45.1 °F 29.9 in West 8.1 mph 16.3 mph 48% 0 in CLR
21:50 65.5 °F 44.8 °F 30 in WNW 10 mph 20.7 mph 47% 0 in CLR
21:55 65.5 °F 44.8 °F 30 in NW 10 mph 19.6 mph 47% 0 in CLR
22:00 65.3 °F 45.1 °F 30 in WNW 13 mph 23 mph 48% 0 in CLR
22:05 64.9 °F 44.8 °F 30 in NW 12.3 mph 21.9 mph 48% 0 in CLR
22:10 64.6 °F 45 °F 30 in NNW 15.2 mph 24.2 mph 49% 0 in CLR
22:15 64.2 °F 44.6 °F 30 in WNW 15.2 mph 25.3 mph 49% 0 in CLR
22:20 64 °F 44.4 °F 30 in WNW 15.2 mph 24.2 mph 49% 0 in CLR
22:25 63.9 °F 44.2 °F 30 in NW 15.2 mph 25.3 mph 49% 0 in CLR
22:30 63.7 °F 44.8 °F 30 in WNW 14.5 mph 24.2 mph 50% 0 in CLR
22:35 63.7 °F 44.8 °F 30 in WNW 14.5 mph 15 mph 50% 0 in CLR
22:40 63.3 °F 44.4 °F 30 in WNW 13 mph 13.8 mph 50% 0 in CLR
22:45 63.3 °F 44.4 °F 30 in WNW 13 mph 20.7 mph 50% 0 in CLR
22:50 63.1 °F 44.2 °F 30 in West 11.4 mph 23 mph 50% 0 in CLR
22:55 63.1 °F 44.2 °F 30 in WNW 11.4 mph 18.4 mph 50% 0 in CLR
23:00 63 °F 44.4 °F 30 in WNW 13 mph 23 mph 51% 0 in CLR
23:05 62.8 °F 44.4 °F 30 in WNW 13 mph 19.6 mph 51% 0 in CLR
23:10 62.4 °F 44.6 °F 30 in WNW 12.3 mph 16.1 mph 52% 0 in CLR
23:15 62.4 °F 44.6 °F 30 in West 12.3 mph 17.3 mph 52% 0 in CLR
23:20 62.4 °F 44.6 °F 30 in WNW 10.7 mph 18.4 mph 52% 0 in CLR
23:25 62.6 °F 44.8 °F 30 in West 10.7 mph 18.4 mph 52% 0 in CLR
23:30 62.4 °F 44.6 °F 30 in West 11.8 mph 16.1 mph 52% 0 in CLR
23:35 62.2 °F 44.4 °F 30 in WNW 11.8 mph 9.2 mph 52% 0 in CLR
23:40 62.2 °F 45 °F 30 in West 8.5 mph 11.5 mph 53% 0 in CLR
23:45 62.1 °F 44.2 °F 30 in WNW 8.5 mph 12.7 mph 52% 0 in CLR
23:50 62.1 °F 44.8 °F 30 in West 7.6 mph 9.2 mph 53% 0 in CLR
23:55 62.1 °F 44.8 °F 30 in NW 7.6 mph 6.9 mph 53% 0 in CLR
Murcia-Puente Tocinos, España
Compliments of Weather Underground - 2.75 mb

La estación de MeteoMurcia.com, publica sus datos en los siguientes proyectos:

Weather Underground PWS IMURCIAP2 Meteoclimatic www.awekas.at

W3Counter
Web Analytics